sensor_id;sensor_type;location;lat;lon;timestamp;P1;durP1;ratioP1;P2;durP2;ratioP2
69083;SDS011;56185;48.526;9.044;2023-12-28T00:02:18;9.00;;;5.18;;
69083;SDS011;56185;48.526;9.044;2023-12-28T00:04:43;7.18;;;4.88;;
69083;SDS011;56185;48.526;9.044;2023-12-28T00:07:08;7.07;;;5.10;;
69083;SDS011;56185;48.526;9.044;2023-12-28T00:09:34;8.35;;;5.60;;
69083;SDS011;56185;48.526;9.044;2023-12-28T00:11:59;7.95;;;5.25;;
69083;SDS011;56185;48.526;9.044;2023-12-28T00:14:24;8.02;;;5.38;;
69083;SDS011;56185;48.526;9.044;2023-12-28T00:16:50;9.40;;;5.90;;
69083;SDS011;56185;48.526;9.044;2023-12-28T00:19:15;7.18;;;5.07;;
69083;SDS011;56185;48.526;9.044;2023-12-28T00:21:40;10.05;;;5.18;;
69083;SDS011;56185;48.526;9.044;2023-12-28T00:24:05;8.03;;;4.83;;
69083;SDS011;56185;48.526;9.044;2023-12-28T00:26:30;6.05;;;4.43;;
69083;SDS011;56185;48.526;9.044;2023-12-28T00:28:56;8.77;;;5.07;;
69083;SDS011;56185;48.526;9.044;2023-12-28T00:31:21;7.50;;;5.30;;
69083;SDS011;56185;48.526;9.044;2023-12-28T00:33:46;8.32;;;5.15;;
69083;SDS011;56185;48.526;9.044;2023-12-28T00:36:11;7.78;;;4.95;;
69083;SDS011;56185;48.526;9.044;2023-12-28T00:38:37;9.57;;;5.10;;
69083;SDS011;56185;48.526;9.044;2023-12-28T00:41:02;8.10;;;5.22;;
69083;SDS011;56185;48.526;9.044;2023-12-28T00:43:27;9.45;;;5.18;;
69083;SDS011;56185;48.526;9.044;2023-12-28T00:45:52;8.82;;;5.20;;
69083;SDS011;56185;48.526;9.044;2023-12-28T00:48:18;7.35;;;5.05;;
69083;SDS011;56185;48.526;9.044;2023-12-28T00:50:43;7.32;;;5.07;;
69083;SDS011;56185;48.526;9.044;2023-12-28T00:53:08;7.45;;;4.88;;
69083;SDS011;56185;48.526;9.044;2023-12-28T00:55:33;7.60;;;4.57;;
69083;SDS011;56185;48.526;9.044;2023-12-28T00:57:59;7.65;;;4.30;;
69083;SDS011;56185;48.526;9.044;2023-12-28T01:00:24;6.03;;;3.95;;
69083;SDS011;56185;48.526;9.044;2023-12-28T01:02:49;6.33;;;4.27;;
69083;SDS011;56185;48.526;9.044;2023-12-28T01:05:14;7.75;;;4.75;;
69083;SDS011;56185;48.526;9.044;2023-12-28T01:07:40;8.68;;;4.28;;
69083;SDS011;56185;48.526;9.044;2023-12-28T01:10:05;7.75;;;4.30;;
69083;SDS011;56185;48.526;9.044;2023-12-28T01:12:31;7.68;;;4.70;;
69083;SDS011;56185;48.526;9.044;2023-12-28T01:14:56;6.22;;;4.05;;
69083;SDS011;56185;48.526;9.044;2023-12-28T01:17:21;5.60;;;3.20;;
69083;SDS011;56185;48.526;9.044;2023-12-28T01:19:46;4.93;;;3.30;;
69083;SDS011;56185;48.526;9.044;2023-12-28T01:22:12;4.88;;;3.00;;
69083;SDS011;56185;48.526;9.044;2023-12-28T01:24:37;4.32;;;3.17;;
69083;SDS011;56185;48.526;9.044;2023-12-28T01:27:02;4.85;;;3.00;;
69083;SDS011;56185;48.526;9.044;2023-12-28T01:29:28;6.97;;;4.38;;
69083;SDS011;56185;48.526;9.044;2023-12-28T01:31:53;6.03;;;4.03;;
69083;SDS011;56185;48.526;9.044;2023-12-28T01:34:18;5.27;;;3.20;;
69083;SDS011;56185;48.526;9.044;2023-12-28T01:36:44;4.83;;;3.37;;
69083;SDS011;56185;48.526;9.044;2023-12-28T01:39:09;6.88;;;4.57;;
69083;SDS011;56185;48.526;9.044;2023-12-28T01:41:35;8.27;;;5.18;;
69083;SDS011;56185;48.526;9.044;2023-12-28T01:44:00;6.83;;;4.63;;
69083;SDS011;56185;48.526;9.044;2023-12-28T01:46:25;8.37;;;4.27;;
69083;SDS011;56185;48.526;9.044;2023-12-28T01:48:50;5.47;;;3.25;;
69083;SDS011;56185;48.526;9.044;2023-12-28T01:51:16;3.95;;;2.97;;
69083;SDS011;56185;48.526;9.044;2023-12-28T01:53:42;4.93;;;2.63;;
69083;SDS011;56185;48.526;9.044;2023-12-28T01:56:08;5.07;;;3.28;;
69083;SDS011;56185;48.526;9.044;2023-12-28T01:58:34;4.63;;;3.38;;
69083;SDS011;56185;48.526;9.044;2023-12-28T02:01:00;6.07;;;3.88;;
69083;SDS011;56185;48.526;9.044;2023-12-28T02:03:26;6.20;;;3.67;;
69083;SDS011;56185;48.526;9.044;2023-12-28T02:05:51;5.93;;;3.45;;
69083;SDS011;56185;48.526;9.044;2023-12-28T02:08:17;6.85;;;4.18;;
69083;SDS011;56185;48.526;9.044;2023-12-28T02:10:42;6.50;;;4.32;;
69083;SDS011;56185;48.526;9.044;2023-12-28T02:13:08;7.10;;;4.65;;
69083;SDS011;56185;48.526;9.044;2023-12-28T02:15:33;6.70;;;4.45;;
69083;SDS011;56185;48.526;9.044;2023-12-28T02:18:00;6.38;;;4.50;;
69083;SDS011;56185;48.526;9.044;2023-12-28T02:20:30;6.75;;;4.28;;
69083;SDS011;56185;48.526;9.044;2023-12-28T02:22:56;8.15;;;4.35;;
69083;SDS011;56185;48.526;9.044;2023-12-28T02:25:22;6.72;;;4.13;;
69083;SDS011;56185;48.526;9.044;2023-12-28T02:27:48;5.15;;;3.70;;
69083;SDS011;56185;48.526;9.044;2023-12-28T02:30:17;5.90;;;3.50;;
69083;SDS011;56185;48.526;9.044;2023-12-28T02:33:02;5.07;;;2.97;;
69083;SDS011;56185;48.526;9.044;2023-12-28T02:35:39;5.45;;;3.03;;
69083;SDS011;56185;48.526;9.044;2023-12-28T02:38:10;5.07;;;2.70;;
69083;SDS011;56185;48.526;9.044;2023-12-28T02:40:40;5.30;;;3.10;;
69083;SDS011;56185;48.526;9.044;2023-12-28T02:43:07;7.97;;;2.90;;
69083;SDS011;56185;48.526;9.044;2023-12-28T02:45:33;5.22;;;3.35;;
69083;SDS011;56185;48.526;9.044;2023-12-28T02:47:59;5.97;;;3.17;;
69083;SDS011;56185;48.526;9.044;2023-12-28T02:50:25;4.05;;;3.00;;
69083;SDS011;56185;48.526;9.044;2023-12-28T02:52:50;6.22;;;2.95;;
69083;SDS011;56185;48.526;9.044;2023-12-28T02:55:15;5.20;;;3.33;;
69083;SDS011;56185;48.526;9.044;2023-12-28T02:57:40;7.90;;;3.53;;
69083;SDS011;56185;48.526;9.044;2023-12-28T03:00:06;4.53;;;3.10;;
69083;SDS011;56185;48.526;9.044;2023-12-28T03:02:31;5.75;;;3.33;;
69083;SDS011;56185;48.526;9.044;2023-12-28T03:04:57;6.33;;;3.30;;
69083;SDS011;56185;48.526;9.044;2023-12-28T03:07:22;4.63;;;3.23;;
69083;SDS011;56185;48.526;9.044;2023-12-28T03:09:47;5.72;;;3.70;;
69083;SDS011;56185;48.526;9.044;2023-12-28T03:12:12;4.77;;;3.33;;
69083;SDS011;56185;48.526;9.044;2023-12-28T03:14:38;5.07;;;3.03;;
69083;SDS011;56185;48.526;9.044;2023-12-28T03:17:03;5.43;;;3.40;;
69083;SDS011;56185;48.526;9.044;2023-12-28T03:19:28;6.93;;;3.40;;
69083;SDS011;56185;48.526;9.044;2023-12-28T03:21:53;6.55;;;3.53;;
69083;SDS011;56185;48.526;9.044;2023-12-28T03:24:19;4.55;;;3.20;;
69083;SDS011;56185;48.526;9.044;2023-12-28T03:26:44;4.77;;;3.20;;
69083;SDS011;56185;48.526;9.044;2023-12-28T03:29:09;5.47;;;3.40;;
69083;SDS011;56185;48.526;9.044;2023-12-28T03:31:38;5.28;;;3.15;;
69083;SDS011;56185;48.526;9.044;2023-12-28T03:34:06;5.63;;;3.50;;
69083;SDS011;56185;48.526;9.044;2023-12-28T03:36:32;6.63;;;3.60;;
69083;SDS011;56185;48.526;9.044;2023-12-28T03:38:57;6.43;;;3.38;;
69083;SDS011;56185;48.526;9.044;2023-12-28T03:41:22;6.05;;;3.40;;
69083;SDS011;56185;48.526;9.044;2023-12-28T03:43:47;6.80;;;3.90;;
69083;SDS011;56185;48.526;9.044;2023-12-28T03:46:13;5.53;;;3.50;;
69083;SDS011;56185;48.526;9.044;2023-12-28T03:48:38;5.80;;;3.35;;
69083;SDS011;56185;48.526;9.044;2023-12-28T03:51:04;5.18;;;3.47;;
69083;SDS011;56185;48.526;9.044;2023-12-28T03:53:30;5.20;;;3.50;;
69083;SDS011;56185;48.526;9.044;2023-12-28T03:55:55;5.60;;;3.75;;
69083;SDS011;56185;48.526;9.044;2023-12-28T03:58:20;4.93;;;3.23;;
69083;SDS011;56185;48.526;9.044;2023-12-28T04:00:45;5.73;;;2.90;;
69083;SDS011;56185;48.526;9.044;2023-12-28T04:03:11;4.75;;;2.78;;
69083;SDS011;56185;48.526;9.044;2023-12-28T04:05:36;4.60;;;3.20;;
69083;SDS011;56185;48.526;9.044;2023-12-28T04:08:01;5.33;;;3.50;;
69083;SDS011;56185;48.526;9.044;2023-12-28T04:10:31;4.78;;;3.40;;
69083;SDS011;56185;48.526;9.044;2023-12-28T04:12:57;6.60;;;3.88;;
69083;SDS011;56185;48.526;9.044;2023-12-28T04:15:26;6.20;;;3.72;;
69083;SDS011;56185;48.526;9.044;2023-12-28T04:17:51;6.57;;;3.42;;
69083;SDS011;56185;48.526;9.044;2023-12-28T04:20:17;5.07;;;3.42;;
69083;SDS011;56185;48.526;9.044;2023-12-28T04:22:42;5.57;;;2.90;;
69083;SDS011;56185;48.526;9.044;2023-12-28T04:25:07;5.27;;;2.87;;
69083;SDS011;56185;48.526;9.044;2023-12-28T04:27:33;5.15;;;2.92;;
69083;SDS011;56185;48.526;9.044;2023-12-28T04:29:58;6.80;;;4.00;;
69083;SDS011;56185;48.526;9.044;2023-12-28T04:32:23;13.03;;;5.30;;
69083;SDS011;56185;48.526;9.044;2023-12-28T04:34:48;9.68;;;4.78;;
69083;SDS011;56185;48.526;9.044;2023-12-28T04:37:13;12.43;;;5.53;;
69083;SDS011;56185;48.526;9.044;2023-12-28T04:39:39;7.77;;;4.87;;
69083;SDS011;56185;48.526;9.044;2023-12-28T04:42:04;7.47;;;4.70;;
69083;SDS011;56185;48.526;9.044;2023-12-28T04:44:29;7.47;;;4.00;;
69083;SDS011;56185;48.526;9.044;2023-12-28T04:46:54;8.53;;;3.13;;
69083;SDS011;56185;48.526;9.044;2023-12-28T04:49:20;4.47;;;2.77;;
69083;SDS011;56185;48.526;9.044;2023-12-28T04:51:45;4.75;;;2.63;;
69083;SDS011;56185;48.526;9.044;2023-12-28T04:54:10;4.72;;;2.60;;
69083;SDS011;56185;48.526;9.044;2023-12-28T04:56:35;3.20;;;2.10;;
69083;SDS011;56185;48.526;9.044;2023-12-28T04:59:01;3.53;;;2.10;;
69083;SDS011;56185;48.526;9.044;2023-12-28T05:01:26;3.87;;;2.20;;
69083;SDS011;56185;48.526;9.044;2023-12-28T05:03:51;4.47;;;2.20;;
69083;SDS011;56185;48.526;9.044;2023-12-28T05:06:16;5.67;;;3.43;;
69083;SDS011;56185;48.526;9.044;2023-12-28T05:08:42;4.40;;;2.33;;
69083;SDS011;56185;48.526;9.044;2023-12-28T05:11:07;3.42;;;2.22;;
69083;SDS011;56185;48.526;9.044;2023-12-28T05:13:32;5.37;;;3.57;;
69083;SDS011;56185;48.526;9.044;2023-12-28T05:15:57;7.40;;;3.57;;
69083;SDS011;56185;48.526;9.044;2023-12-28T05:18:22;3.90;;;2.47;;
69083;SDS011;56185;48.526;9.044;2023-12-28T05:20:48;2.80;;;2.20;;
69083;SDS011;56185;48.526;9.044;2023-12-28T05:23:13;5.67;;;3.37;;
69083;SDS011;56185;48.526;9.044;2023-12-28T05:25:38;5.13;;;3.00;;
69083;SDS011;56185;48.526;9.044;2023-12-28T05:28:03;3.53;;;2.60;;
69083;SDS011;56185;48.526;9.044;2023-12-28T05:30:29;3.60;;;2.50;;
69083;SDS011;56185;48.526;9.044;2023-12-28T05:32:54;3.85;;;2.55;;
69083;SDS011;56185;48.526;9.044;2023-12-28T05:35:19;3.67;;;2.20;;
69083;SDS011;56185;48.526;9.044;2023-12-28T05:37:45;4.77;;;2.67;;
69083;SDS011;56185;48.526;9.044;2023-12-28T05:40:10;4.97;;;2.50;;
69083;SDS011;56185;48.526;9.044;2023-12-28T05:42:35;6.78;;;2.33;;
69083;SDS011;56185;48.526;9.044;2023-12-28T05:45:01;2.92;;;2.10;;
69083;SDS011;56185;48.526;9.044;2023-12-28T05:47:26;4.05;;;2.40;;
69083;SDS011;56185;48.526;9.044;2023-12-28T05:49:51;6.22;;;3.65;;
69083;SDS011;56185;48.526;9.044;2023-12-28T05:52:16;4.82;;;3.10;;
69083;SDS011;56185;48.526;9.044;2023-12-28T05:54:42;8.17;;;3.27;;
69083;SDS011;56185;48.526;9.044;2023-12-28T05:57:07;6.37;;;3.90;;
69083;SDS011;56185;48.526;9.044;2023-12-28T05:59:32;9.87;;;4.10;;
69083;SDS011;56185;48.526;9.044;2023-12-28T06:02:02;6.72;;;4.00;;
69083;SDS011;56185;48.526;9.044;2023-12-28T06:04:27;5.85;;;3.75;;
69083;SDS011;56185;48.526;9.044;2023-12-28T06:06:52;6.30;;;3.80;;
69083;SDS011;56185;48.526;9.044;2023-12-28T06:09:17;6.87;;;4.10;;
69083;SDS011;56185;48.526;9.044;2023-12-28T06:11:43;5.37;;;3.77;;
69083;SDS011;56185;48.526;9.044;2023-12-28T06:14:08;10.47;;;3.60;;
69083;SDS011;56185;48.526;9.044;2023-12-28T06:16:33;7.33;;;3.93;;
69083;SDS011;56185;48.526;9.044;2023-12-28T06:18:58;6.95;;;3.67;;
69083;SDS011;56185;48.526;9.044;2023-12-28T06:21:24;5.78;;;3.17;;
69083;SDS011;56185;48.526;9.044;2023-12-28T06:23:49;4.93;;;3.30;;
69083;SDS011;56185;48.526;9.044;2023-12-28T06:26:14;4.60;;;2.70;;
69083;SDS011;56185;48.526;9.044;2023-12-28T06:28:39;5.30;;;3.45;;
69083;SDS011;56185;48.526;9.044;2023-12-28T06:31:04;4.87;;;3.20;;
69083;SDS011;56185;48.526;9.044;2023-12-28T06:33:30;4.18;;;2.80;;
69083;SDS011;56185;48.526;9.044;2023-12-28T06:35:55;4.28;;;2.53;;
69083;SDS011;56185;48.526;9.044;2023-12-28T06:38:20;5.30;;;2.63;;
69083;SDS011;56185;48.526;9.044;2023-12-28T06:40:45;3.78;;;2.42;;
69083;SDS011;56185;48.526;9.044;2023-12-28T06:43:11;3.97;;;2.30;;
69083;SDS011;56185;48.526;9.044;2023-12-28T06:45:36;3.88;;;2.58;;
69083;SDS011;56185;48.526;9.044;2023-12-28T06:48:01;4.13;;;2.70;;
69083;SDS011;56185;48.526;9.044;2023-12-28T06:50:27;6.35;;;3.25;;
69083;SDS011;56185;48.526;9.044;2023-12-28T06:52:52;5.47;;;3.27;;
69083;SDS011;56185;48.526;9.044;2023-12-28T06:55:17;4.60;;;3.10;;
69083;SDS011;56185;48.526;9.044;2023-12-28T06:57:42;5.27;;;3.23;;
69083;SDS011;56185;48.526;9.044;2023-12-28T07:00:08;5.43;;;2.60;;
69083;SDS011;56185;48.526;9.044;2023-12-28T07:02:33;5.97;;;3.08;;
69083;SDS011;56185;48.526;9.044;2023-12-28T07:04:59;7.07;;;3.20;;
69083;SDS011;56185;48.526;9.044;2023-12-28T07:07:24;5.37;;;3.00;;
69083;SDS011;56185;48.526;9.044;2023-12-28T07:09:49;4.70;;;2.83;;
69083;SDS011;56185;48.526;9.044;2023-12-28T07:12:14;4.17;;;2.50;;
69083;SDS011;56185;48.526;9.044;2023-12-28T07:14:40;5.00;;;3.15;;
69083;SDS011;56185;48.526;9.044;2023-12-28T07:17:05;3.88;;;2.55;;
69083;SDS011;56185;48.526;9.044;2023-12-28T07:19:30;4.43;;;2.70;;
69083;SDS011;56185;48.526;9.044;2023-12-28T07:21:55;3.23;;;2.60;;
69083;SDS011;56185;48.526;9.044;2023-12-28T07:24:20;5.03;;;3.27;;
69083;SDS011;56185;48.526;9.044;2023-12-28T07:26:46;6.70;;;2.80;;
69083;SDS011;56185;48.526;9.044;2023-12-28T07:29:11;4.40;;;3.17;;
69083;SDS011;56185;48.526;9.044;2023-12-28T07:31:36;5.63;;;2.85;;
69083;SDS011;56185;48.526;9.044;2023-12-28T07:34:01;3.40;;;2.37;;
69083;SDS011;56185;48.526;9.044;2023-12-28T07:36:27;3.70;;;2.90;;
69083;SDS011;56185;48.526;9.044;2023-12-28T07:38:52;4.17;;;2.90;;
69083;SDS011;56185;48.526;9.044;2023-12-28T07:41:17;3.93;;;2.70;;
69083;SDS011;56185;48.526;9.044;2023-12-28T07:43:43;11.23;;;3.17;;
69083;SDS011;56185;48.526;9.044;2023-12-28T07:46:08;5.38;;;2.92;;
69083;SDS011;56185;48.526;9.044;2023-12-28T07:48:33;4.00;;;2.77;;
69083;SDS011;56185;48.526;9.044;2023-12-28T07:51:03;4.00;;;2.88;;
69083;SDS011;56185;48.526;9.044;2023-12-28T07:53:29;3.97;;;2.72;;
69083;SDS011;56185;48.526;9.044;2023-12-28T07:55:54;3.70;;;2.20;;
69083;SDS011;56185;48.526;9.044;2023-12-28T07:58:19;4.73;;;2.70;;
69083;SDS011;56185;48.526;9.044;2023-12-28T08:00:45;4.40;;;2.47;;
69083;SDS011;56185;48.526;9.044;2023-12-28T08:03:10;3.23;;;2.30;;
69083;SDS011;56185;48.526;9.044;2023-12-28T08:05:35;3.10;;;2.40;;
69083;SDS011;56185;48.526;9.044;2023-12-28T08:08:00;4.13;;;2.70;;
69083;SDS011;56185;48.526;9.044;2023-12-28T08:10:26;4.73;;;2.73;;
69083;SDS011;56185;48.526;9.044;2023-12-28T08:12:51;6.40;;;3.20;;
69083;SDS011;56185;48.526;9.044;2023-12-28T08:15:16;9.63;;;4.90;;
69083;SDS011;56185;48.526;9.044;2023-12-28T08:17:41;7.50;;;5.33;;
69083;SDS011;56185;48.526;9.044;2023-12-28T08:20:07;8.77;;;5.20;;
69083;SDS011;56185;48.526;9.044;2023-12-28T08:22:32;7.68;;;3.90;;
69083;SDS011;56185;48.526;9.044;2023-12-28T08:24:57;6.90;;;3.42;;
69083;SDS011;56185;48.526;9.044;2023-12-28T08:27:23;3.93;;;2.77;;
69083;SDS011;56185;48.526;9.044;2023-12-28T08:29:48;4.05;;;2.50;;
69083;SDS011;56185;48.526;9.044;2023-12-28T08:32:14;3.15;;;2.28;;
69083;SDS011;56185;48.526;9.044;2023-12-28T08:34:39;8.20;;;4.70;;
69083;SDS011;56185;48.526;9.044;2023-12-28T08:37:04;7.18;;;4.88;;
69083;SDS011;56185;48.526;9.044;2023-12-28T08:39:30;8.98;;;5.35;;
69083;SDS011;56185;48.526;9.044;2023-12-28T08:41:55;7.47;;;5.17;;
69083;SDS011;56185;48.526;9.044;2023-12-28T08:44:20;8.02;;;5.50;;
69083;SDS011;56185;48.526;9.044;2023-12-28T08:46:46;8.70;;;5.18;;
69083;SDS011;56185;48.526;9.044;2023-12-28T08:49:11;7.50;;;4.60;;
69083;SDS011;56185;48.526;9.044;2023-12-28T08:51:36;6.18;;;4.38;;
69083;SDS011;56185;48.526;9.044;2023-12-28T08:54:01;8.47;;;5.07;;
69083;SDS011;56185;48.526;9.044;2023-12-28T08:56:27;7.15;;;4.95;;
69083;SDS011;56185;48.526;9.044;2023-12-28T08:58:52;6.00;;;4.17;;
69083;SDS011;56185;48.526;9.044;2023-12-28T09:01:18;6.43;;;4.10;;
69083;SDS011;56185;48.526;9.044;2023-12-28T09:03:44;7.47;;;4.22;;
69083;SDS011;56185;48.526;9.044;2023-12-28T09:06:09;6.95;;;4.05;;
69083;SDS011;56185;48.526;9.044;2023-12-28T09:08:35;6.65;;;4.20;;
69083;SDS011;56185;48.526;9.044;2023-12-28T09:11:00;7.00;;;4.30;;
69083;SDS011;56185;48.526;9.044;2023-12-28T09:13:25;9.07;;;4.47;;
69083;SDS011;56185;48.526;9.044;2023-12-28T09:15:50;6.47;;;4.30;;
69083;SDS011;56185;48.526;9.044;2023-12-28T09:18:16;7.10;;;4.33;;
69083;SDS011;56185;48.526;9.044;2023-12-28T09:20:41;5.18;;;3.65;;
69083;SDS011;56185;48.526;9.044;2023-12-28T09:23:06;4.67;;;3.30;;
69083;SDS011;56185;48.526;9.044;2023-12-28T09:25:31;4.90;;;3.30;;
69083;SDS011;56185;48.526;9.044;2023-12-28T09:27:57;6.30;;;3.50;;
69083;SDS011;56185;48.526;9.044;2023-12-28T09:30:22;6.57;;;4.03;;
69083;SDS011;56185;48.526;9.044;2023-12-28T09:32:47;4.45;;;3.17;;
69083;SDS011;56185;48.526;9.044;2023-12-28T09:35:12;6.53;;;3.60;;
69083;SDS011;56185;48.526;9.044;2023-12-28T09:37:38;4.43;;;3.28;;
69083;SDS011;56185;48.526;9.044;2023-12-28T09:40:03;7.50;;;4.17;;
69083;SDS011;56185;48.526;9.044;2023-12-28T09:42:48;8.13;;;5.05;;
69083;SDS011;56185;48.526;9.044;2023-12-28T09:45:21;13.65;;;7.43;;
69083;SDS011;56185;48.526;9.044;2023-12-28T09:47:47;8.52;;;5.18;;
69083;SDS011;56185;48.526;9.044;2023-12-28T09:50:12;6.57;;;4.15;;
69083;SDS011;56185;48.526;9.044;2023-12-28T09:52:39;6.22;;;3.72;;
69083;SDS011;56185;48.526;9.044;2023-12-28T09:55:04;6.45;;;3.50;;
69083;SDS011;56185;48.526;9.044;2023-12-28T09:57:30;5.15;;;3.45;;
69083;SDS011;56185;48.526;9.044;2023-12-28T09:59:55;5.50;;;3.15;;
69083;SDS011;56185;48.526;9.044;2023-12-28T10:02:21;6.07;;;3.20;;
69083;SDS011;56185;48.526;9.044;2023-12-28T10:04:46;4.70;;;3.00;;
69083;SDS011;56185;48.526;9.044;2023-12-28T10:07:12;6.28;;;3.63;;
69083;SDS011;56185;48.526;9.044;2023-12-28T10:09:37;9.03;;;4.80;;
69083;SDS011;56185;48.526;9.044;2023-12-28T10:12:02;10.13;;;5.72;;
69083;SDS011;56185;48.526;9.044;2023-12-28T10:14:27;9.15;;;5.70;;
69083;SDS011;56185;48.526;9.044;2023-12-28T10:16:53;9.57;;;5.15;;
69083;SDS011;56185;48.526;9.044;2023-12-28T10:19:22;5.93;;;4.10;;
69083;SDS011;56185;48.526;9.044;2023-12-28T10:21:47;9.65;;;4.63;;
69083;SDS011;56185;48.526;9.044;2023-12-28T10:24:12;7.00;;;4.43;;
69083;SDS011;56185;48.526;9.044;2023-12-28T10:26:38;5.60;;;3.92;;
69083;SDS011;56185;48.526;9.044;2023-12-28T10:29:04;8.13;;;4.13;;
69083;SDS011;56185;48.526;9.044;2023-12-28T10:31:29;9.13;;;4.60;;
69083;SDS011;56185;48.526;9.044;2023-12-28T10:33:57;8.18;;;4.10;;
69083;SDS011;56185;48.526;9.044;2023-12-28T10:36:23;6.20;;;4.10;;
69083;SDS011;56185;48.526;9.044;2023-12-28T10:38:48;7.32;;;4.20;;
69083;SDS011;56185;48.526;9.044;2023-12-28T10:41:16;6.63;;;4.13;;
69083;SDS011;56185;48.526;9.044;2023-12-28T10:46:27;6.10;;;3.58;;
69083;SDS011;56185;48.526;9.044;2023-12-28T10:48:57;5.18;;;3.20;;
69083;SDS011;56185;48.526;9.044;2023-12-28T10:51:36;6.25;;;3.28;;
69083;SDS011;56185;48.526;9.044;2023-12-28T10:54:10;4.43;;;2.90;;
69083;SDS011;56185;48.526;9.044;2023-12-28T10:56:47;4.70;;;3.20;;
69083;SDS011;56185;48.526;9.044;2023-12-28T10:59:39;6.20;;;3.03;;
69083;SDS011;56185;48.526;9.044;2023-12-28T11:02:13;5.38;;;2.90;;
69083;SDS011;56185;48.526;9.044;2023-12-28T11:04:41;5.13;;;2.83;;
69083;SDS011;56185;48.526;9.044;2023-12-28T11:07:10;5.60;;;2.95;;
69083;SDS011;56185;48.526;9.044;2023-12-28T11:09:36;5.05;;;2.50;;
69083;SDS011;56185;48.526;9.044;2023-12-28T11:12:02;3.92;;;2.67;;
69083;SDS011;56185;48.526;9.044;2023-12-28T11:14:31;3.92;;;2.53;;
69083;SDS011;56185;48.526;9.044;2023-12-28T11:16:58;3.95;;;2.22;;
69083;SDS011;56185;48.526;9.044;2023-12-28T11:19:24;3.53;;;2.00;;
69083;SDS011;56185;48.526;9.044;2023-12-28T11:21:49;6.07;;;4.03;;
69083;SDS011;56185;48.526;9.044;2023-12-28T11:24:16;4.00;;;2.30;;
69083;SDS011;56185;48.526;9.044;2023-12-28T11:26:41;3.70;;;1.98;;
69083;SDS011;56185;48.526;9.044;2023-12-28T11:29:07;3.38;;;2.17;;
69083;SDS011;56185;48.526;9.044;2023-12-28T11:31:33;2.67;;;1.95;;
69083;SDS011;56185;48.526;9.044;2023-12-28T11:33:59;4.75;;;1.98;;
69083;SDS011;56185;48.526;9.044;2023-12-28T11:39:05;4.60;;;2.20;;
69083;SDS011;56185;48.526;9.044;2023-12-28T11:41:32;2.75;;;1.77;;
69083;SDS011;56185;48.526;9.044;2023-12-28T11:44:01;4.35;;;2.20;;
69083;SDS011;56185;48.526;9.044;2023-12-28T11:46:28;6.75;;;2.40;;
69083;SDS011;56185;48.526;9.044;2023-12-28T11:49:02;3.55;;;1.85;;
69083;SDS011;56185;48.526;9.044;2023-12-28T11:51:31;4.47;;;1.90;;
69083;SDS011;56185;48.526;9.044;2023-12-28T11:53:58;4.57;;;2.50;;
69083;SDS011;56185;48.526;9.044;2023-12-28T11:56:24;5.00;;;2.83;;
69083;SDS011;56185;48.526;9.044;2023-12-28T11:58:50;5.60;;;3.08;;
69083;SDS011;56185;48.526;9.044;2023-12-28T12:01:15;5.13;;;2.30;;
69083;SDS011;56185;48.526;9.044;2023-12-28T12:03:40;3.30;;;1.80;;
69083;SDS011;56185;48.526;9.044;2023-12-28T12:06:06;2.67;;;1.67;;
69083;SDS011;56185;48.526;9.044;2023-12-28T12:08:31;2.67;;;1.60;;
69083;SDS011;56185;48.526;9.044;2023-12-28T12:11:00;2.20;;;1.30;;
69083;SDS011;56185;48.526;9.044;2023-12-28T12:13:35;4.32;;;1.50;;
69083;SDS011;56185;48.526;9.044;2023-12-28T12:16:00;2.03;;;1.60;;
69083;SDS011;56185;48.526;9.044;2023-12-28T12:18:25;3.63;;;1.60;;
69083;SDS011;56185;48.526;9.044;2023-12-28T12:20:50;3.25;;;1.83;;
69083;SDS011;56185;48.526;9.044;2023-12-28T12:23:16;2.78;;;1.77;;
69083;SDS011;56185;48.526;9.044;2023-12-28T12:25:41;3.13;;;2.22;;
69083;SDS011;56185;48.526;9.044;2023-12-28T12:28:07;2.47;;;1.80;;
69083;SDS011;56185;48.526;9.044;2023-12-28T12:30:32;3.88;;;1.70;;
69083;SDS011;56185;48.526;9.044;2023-12-28T12:32:57;4.27;;;2.20;;
69083;SDS011;56185;48.526;9.044;2023-12-28T12:35:23;3.28;;;1.90;;
69083;SDS011;56185;48.526;9.044;2023-12-28T12:37:49;5.72;;;2.28;;
69083;SDS011;56185;48.526;9.044;2023-12-28T12:40:14;3.28;;;2.00;;
69083;SDS011;56185;48.526;9.044;2023-12-28T12:42:39;3.45;;;1.88;;
69083;SDS011;56185;48.526;9.044;2023-12-28T12:45:05;3.63;;;2.00;;
69083;SDS011;56185;48.526;9.044;2023-12-28T12:47:34;2.60;;;1.63;;
69083;SDS011;56185;48.526;9.044;2023-12-28T12:49:59;3.75;;;2.00;;
69083;SDS011;56185;48.526;9.044;2023-12-28T12:52:25;2.65;;;1.92;;
69083;SDS011;56185;48.526;9.044;2023-12-28T12:54:56;2.75;;;1.70;;
69083;SDS011;56185;48.526;9.044;2023-12-28T12:57:22;2.80;;;1.73;;
69083;SDS011;56185;48.526;9.044;2023-12-28T12:59:48;2.55;;;1.70;;
69083;SDS011;56185;48.526;9.044;2023-12-28T13:02:13;2.42;;;1.42;;
69083;SDS011;56185;48.526;9.044;2023-12-28T13:04:38;2.70;;;1.40;;
69083;SDS011;56185;48.526;9.044;2023-12-28T13:07:04;2.97;;;1.80;;
69083;SDS011;56185;48.526;9.044;2023-12-28T13:09:29;3.97;;;1.60;;
69083;SDS011;56185;48.526;9.044;2023-12-28T13:11:54;3.47;;;1.70;;
69083;SDS011;56185;48.526;9.044;2023-12-28T13:14:19;2.53;;;1.70;;
69083;SDS011;56185;48.526;9.044;2023-12-28T13:16:45;5.33;;;1.83;;
69083;SDS011;56185;48.526;9.044;2023-12-28T13:19:10;2.57;;;1.77;;
69083;SDS011;56185;48.526;9.044;2023-12-28T13:21:35;3.17;;;1.90;;
69083;SDS011;56185;48.526;9.044;2023-12-28T13:24:00;2.03;;;1.43;;
69083;SDS011;56185;48.526;9.044;2023-12-28T13:26:26;2.97;;;1.67;;
69083;SDS011;56185;48.526;9.044;2023-12-28T13:28:51;3.77;;;2.00;;
69083;SDS011;56185;48.526;9.044;2023-12-28T13:31:16;2.60;;;1.83;;
69083;SDS011;56185;48.526;9.044;2023-12-28T13:33:41;4.20;;;2.00;;
69083;SDS011;56185;48.526;9.044;2023-12-28T13:36:06;2.97;;;1.97;;
69083;SDS011;56185;48.526;9.044;2023-12-28T13:38:32;3.53;;;1.90;;
69083;SDS011;56185;48.526;9.044;2023-12-28T13:40:57;2.80;;;1.80;;
69083;SDS011;56185;48.526;9.044;2023-12-28T13:43:22;3.45;;;1.95;;
69083;SDS011;56185;48.526;9.044;2023-12-28T13:45:47;5.40;;;2.17;;
69083;SDS011;56185;48.526;9.044;2023-12-28T13:48:13;3.13;;;1.97;;
69083;SDS011;56185;48.526;9.044;2023-12-28T13:50:38;3.67;;;2.10;;
69083;SDS011;56185;48.526;9.044;2023-12-28T13:53:03;2.60;;;1.67;;
69083;SDS011;56185;48.526;9.044;2023-12-28T13:55:28;18.47;;;8.67;;
69083;SDS011;56185;48.526;9.044;2023-12-28T13:57:53;2.80;;;1.80;;
69083;SDS011;56185;48.526;9.044;2023-12-28T14:00:19;2.13;;;1.57;;
69083;SDS011;56185;48.526;9.044;2023-12-28T14:02:44;2.95;;;1.65;;
69083;SDS011;56185;48.526;9.044;2023-12-28T14:05:09;3.30;;;1.83;;
69083;SDS011;56185;48.526;9.044;2023-12-28T14:07:34;6.63;;;2.30;;
69083;SDS011;56185;48.526;9.044;2023-12-28T14:10:00;3.40;;;1.90;;
69083;SDS011;56185;48.526;9.044;2023-12-28T14:12:25;2.67;;;1.93;;
69083;SDS011;56185;48.526;9.044;2023-12-28T14:14:50;2.73;;;1.83;;
69083;SDS011;56185;48.526;9.044;2023-12-28T14:17:15;3.70;;;2.30;;
69083;SDS011;56185;48.526;9.044;2023-12-28T14:19:41;3.72;;;2.40;;
69083;SDS011;56185;48.526;9.044;2023-12-28T14:22:06;3.23;;;2.23;;
69083;SDS011;56185;48.526;9.044;2023-12-28T14:24:32;2.78;;;2.00;;
69083;SDS011;56185;48.526;9.044;2023-12-28T14:26:57;2.65;;;1.90;;
69083;SDS011;56185;48.526;9.044;2023-12-28T14:29:23;3.30;;;2.22;;
69083;SDS011;56185;48.526;9.044;2023-12-28T14:31:48;3.55;;;2.15;;
69083;SDS011;56185;48.526;9.044;2023-12-28T14:34:14;3.00;;;2.30;;
69083;SDS011;56185;48.526;9.044;2023-12-28T14:36:40;5.00;;;3.40;;
69083;SDS011;56185;48.526;9.044;2023-12-28T14:39:06;6.90;;;3.42;;
69083;SDS011;56185;48.526;9.044;2023-12-28T14:41:36;5.53;;;3.63;;
69083;SDS011;56185;48.526;9.044;2023-12-28T14:44:02;4.75;;;3.25;;
69083;SDS011;56185;48.526;9.044;2023-12-28T14:46:28;5.95;;;3.25;;